Have a Safe July 4th! 

Flight Track Log - Related Links

Times and Time Zones

All times are in EDT time to prevent confusion due to time zone crossing. See the SKW7367 flight status page for this flight to view local times or setup timezone preferences in your user account.

Time Position Orientation Groundspeed Altitude Reporting Facility
EDT Latitude Longitude Course Direction KTS MPH feet Rate Location/Type
Fri 04:02:22 PM 42.2128 -83.3625 North 148 170 1,300  Level Cleveland Center
Fri 04:04:12 PM 42.1486 -83.4539 227° Southwest 222 255 6,800 3,164 Climbing Cleveland Center
Fri 04:05:00 PM 42.4701 -83.3500 North  Level FlightAware Approximate
Fri 04:05:07 PM 42.1567 -83.5433 277° West 255 293 10,000  Level Cleveland Center
Fri 04:06:00 PM 42.5602 -83.3500 North  Level FlightAware Approximate
Fri 04:06:02 PM 42.2083 -83.6042 319° Northwest 290 334 10,000  Level Cleveland Center
Fri 04:06:16 PM 42.2203 -83.6078 347° North 283 326 10,000 2,132 Level Cleveland Center
Fri 04:07:00 PM 42.6502 -83.3500 North  Level FlightAware Approximate
Fri 04:07:18 PM 42.2969 -83.6514 337° Northwest 292 336 12,700  Level Cleveland Center
Fri 04:08:20 PM 42.3878 -83.6317 North 343 395 14,600 1,104 Climbing Cleveland Center
Fri 04:09:23 PM 42.4797 -83.6022 13° North 340 391 15,000 192 Climbing Cleveland Center
Fri 04:10:25 PM 42.5650 -83.6386 343° North 321 369 15,000  Level Cleveland Center
Fri 04:11:27 PM 42.6650 -83.6831 342° North 319 367 15,000  Level Cleveland Center
Fri 04:12:29 PM 42.7478 -83.7203 342° North 316 364 15,000  Level Cleveland Center
Fri 04:13:31 PM 42.8308 -83.7575 342° North 315 362 15,000  Level Cleveland Center
Fri 04:14:33 PM 42.9133 -83.7942 342° North 315 362 15,000  Level Cleveland Center
Fri 04:15:35 PM 42.9961 -83.8322 341° North 314 361 15,000  Level Cleveland Center
Fri 04:16:37 PM 43.0792 -83.8694 342° North 314 361 15,000  Level Cleveland Center
Fri 04:17:39 PM 43.1764 -83.9125 342° North 311 358 15,000  Level Cleveland Center
Fri 04:18:41 PM 43.2592 -83.9514 341° North 310 357 15,000  Level Cleveland Center
Fri 04:19:44 PM 43.3403 -83.9889 341° North 310 357 15,000  Level Cleveland Center
Fri 04:20:46 PM 43.4172 -84.0236 342° North 311 358 15,000  Level Cleveland Center
Fri 04:21:48 PM 43.5164 -84.0678 342° North 311 358 15,000  Level Cleveland Center
Fri 04:22:50 PM 43.6086 -84.0506 North 340 391 15,000  Level Cleveland Center
Fri 04:23:52 PM 43.7014 -84.0211 13° North 341 392 15,000  Level Cleveland Center
Fri 04:24:54 PM 43.7944 -83.9889 14° North 342 394 15,000  Level Cleveland Center
Fri 04:25:46 PM 43.8878 -83.9592 13° North 345 397 15,000 -53 Level Minneapolis Center
Fri 04:26:48 PM 43.9847 -83.9272 13° North 345 397 14,900 -48 Descending Minneapolis Center
Fri 04:27:50 PM 44.0733 -83.8897 17° North 338 389 14,900  Level Minneapolis Center
Fri 04:28:52 PM 44.1653 -83.8517 17° North 326 375 14,900  Level Minneapolis Center
Fri 04:29:54 PM 44.2503 -83.8167 16° North 325 374 14,900 -290 Level Minneapolis Center
Fri 04:30:56 PM 44.3433 -83.7778 17° North 324 373 14,300 -1,790 Descending Minneapolis Center
Fri 04:31:58 PM 44.4236 -83.7453 16° North 308 354 11,200 -2,274 Descending Minneapolis Center
Fri 04:33:00 PM 44.5081 -83.7100 17° North 296 341 9,600 -1,645 Descending Minneapolis Center
Fri 04:34:02 PM 44.5797 -83.6797 17° North 278 320 7,800 -1,452 Descending Minneapolis Center
Fri 04:35:04 PM 44.6542 -83.6486 17° North 267 307 6,600 -1,200 Descending Minneapolis Center
Fri 04:36:07 PM 44.7211 -83.6203 17° North 260 299 5,300 -864 Descending Minneapolis Center
Fri 04:37:09 PM 44.7936 -83.5894 17° North 258 297 4,800 -532 Descending Minneapolis Center
Fri 04:38:11 PM 44.8594 -83.5628 16° North 235 270 4,200 -677 Descending Minneapolis Center
Fri 04:39:13 PM 44.9144 -83.5592 North 206 237 3,400 -677 Descending Minneapolis Center
Fri 04:40:15 PM 44.9625 -83.5611 358° North 166 191 2,800 -629 Descending Minneapolis Center
Fri 04:41:17 PM 45.0017 -83.5611 360° North 148 170 2,100 -677 Descending Minneapolis Center
Fri 04:42:19 PM 45.0381 -83.5608 360° North 129 148 1,400 -629 Descending Minneapolis Center
Fri 04:43:21 PM 45.0683 -83.5606 360° North 124 143 800 -581 Descending Minneapolis Center
Fri 04:45:00 PM 45.0667 -83.5500 North  Level FlightAware Approximate
Fri 04:52:00 PM 45.0781 -83.5603 North  Level Estimated

Login

Don't have an account? Register now (free) for customized features, flight alerts, and more!